首页
METAR-TAF:

METAR-TAF

机场 :

彭德-雅皮特國際機場

皮特尔角城, 瓜德罗普

纬度: 16-16N, 经度: 061-31W, 海拔: 11米

当前天气观测

该预报发布于25分钟前的01:30 UTC
风速7节,风向
温度 27°C
湿度 74%
气压 1016 hPa
能见度10公里或以上
1500米以下无云,无积雨云

METAR: TFFR 310130Z AUTO 09007KT CAVOK 27/22 Q1016 TEMPO 4000 -SHRA BKN018TCU

时间: 21:55 (01:55 UTC)

预报

该预报发布于2小时和55分钟前的23:00 UTC
预报有效从31日的 00点(UTC)到 31日的 24点(UTC)
风速6节,风向
能见度10公里或以上
少量云层高于3000英尺
散云层高于7000英尺
几率 40% :
短暂存在
从 31日的 00点(UTC)到 31日的 03点(UTC)
能見度: 4000
多云层高于1800英尺, 塔状积云.
小阵雨
几率 30% :
短暂存在
从 31日的 12点(UTC)到 31日的 18点(UTC)
能見度: 4000
多云层高于1800英尺, 塔状积云.
小阵雨

TAF: TFFR 302300Z 3100/3124 10006KT 9999 FEW030 SCT070 PROB40 TEMPO 3100/3103 4000 -SHRA BKN018TCU PROB30 TEMPO 3112/3118 4000 -SHRA BKN018TCU

超过4000个机场的气象观测和天气预报(METAR&TAF报告)。

可查询的气象台以黄色和红色小点在地图上表示。

将鼠标移到小点上方,可查看气象台名称。

然后点击查看天气观测和预报。

如需切换地图:点击带黑十字的绿色按钮放大地图;点击带横线的绿色按钮缩小地图;或者点击绿色箭头查看邻近地区的地图。


METAR-TAF: